首页
METAR-TAF:

METAR-TAF

机场 :

杜魯斯, 明尼蘇達州, 美国

纬度: 46-50-34N, 经度: 092-13-34W, 海拔: 435米

当前天气观测

该预报发布于11分钟前的14:55 UTC
风速10节,风向西北,有时为17节阵风
温度 16°C
湿度 63%
气压 1009 hPa
能見度: 16.1公里
多云层高于1900英尺

METAR: KDLH 221455Z 31010G17KT 10SM BKN019 16/09 A2981 RMK AO2 SLP096 T01560094 53009

时间: 10:06 (15:06 UTC)

预报

该预报发布于3小时和40分钟前的11:26 UTC
预报有效从22日的 12点(UTC)到 23日的 12点(UTC)
风速10节,风向西转西北,有时为16节阵风
能見度: 10公里
散云层高于1700英尺
多云层高于15000英尺
短暂存在
从 22日的 12点(UTC)到 22日的 14点(UTC)
多云层高于1700英尺
从 22日的 1400点(UTC)
风速10节,风向西,有时为17节阵风
能見度: 10公里
散云层高于1500英尺
多云层高于2300英尺
从 22日的 1600点(UTC)
风速10节,风向西,有时为16节阵风
能見度: 10公里
散云层高于2500英尺
多云层高于5000英尺
从 22日的 2300点(UTC)
风速7节,风向西转西北
能見度: 10公里
散云层高于5000英尺
多云层高于10000英尺

TAF: KDLH 221126Z 2212/2312 29010G16KT P6SM SCT017 BKN150 TEMPO 2212/2214 BKN017 FM221400 28010G17KT P6SM SCT015 BKN023 FM221600 28010G16KT P6SM SCT025 BKN050 FM222300 29007KT P6SM SCT050 BKN100

超过4000个机场的气象观测和天气预报(METAR&TAF报告)。

可查询的气象台以黄色和红色小点在地图上表示。

将鼠标移到小点上方,可查看气象台名称。

然后点击查看天气观测和预报。

如需切换地图:点击带黑十字的绿色按钮放大地图;点击带横线的绿色按钮缩小地图;或者点击绿色箭头查看邻近地区的地图。


METAR-TAF: